New Hamburg, Canada
Current Conditions -  °F | °C
As of 8:00 AM on Tuesday 21 Oct 2014 (Local Time) from CYKF Reporting Station
Moderate Rain Moderate Rain  
Wind Chill: 42°   Ceiling: 900
Heat Index: 46°   Visibility: 6mi
Dew Point: 45°   Wind: 8mph
Humidity: 93%   Direction: 310°NW
Pressure: 29.83"   Gusts: NA
Location:  43.38°N, 80.72°W
Report Text: CYKF 211200Z AUTO 31007KT 6SM RA BR OVC009 08/07 A2983 RMK PCPN 0.8MM PAST HR SLP106
Loading
Personal Weather Stations






























Interactive Weather Map
Tropical Storm Tracking
New forecast layout! Learn more

10-Day Weather Forecast

Advertisements
Track Severe Weather on mobile